Terminal Aerodrome Forecast
Issued by NWS Green Bay, WI

Home | Current Version | Previous Version | Graphics & Text | Print | Product List | Glossary On
Versions: 1 2 3 4 5 6 7 8 9 10 11 12 13 14 15 16 17 18 19 20 21 22
000
FTUS43 KGRB 142335
TAFGRB
TAF
KGRB 142335Z 1500/1524 18010KT P6SM BKN040
     FM150200 16009KT P6SM -SN SCT030 OVC040
      TEMPO 1503/1505 4SM -SN BKN030
     FM150500 16008KT 1 1/2SM -SN OVC018
     FM150900 12006KT 1 1/2SM -SN OVC012
     FM151200 09009KT 1 1/2SM -SN SCT005 OVC010
      TEMPO 1514/1518 1/2SM SN OVC005
     FM151800 08008KT 1 1/2SM -SN SCT006 OVC012
      TEMPO 1518/1522 3/4SM -SN OVC006=

USA.gov is the U.S. government's official web portal to all federal, state and local government web resources and services.